createdAt,value
2023-02-01T00:05:01.734Z,2.90
2023-02-01T00:10:05.957Z,4.50
2023-02-01T00:15:09.174Z,5.88
2023-02-01T00:20:12.468Z,4.35
2023-02-01T00:25:15.417Z,4.93
2023-02-01T00:30:20.112Z,5.32
2023-02-01T00:35:22.967Z,3.53
2023-02-01T00:40:25.627Z,5.13
2023-02-01T00:45:28.286Z,5.15
2023-02-01T00:50:30.775Z,5.55
2023-02-01T00:55:33.527Z,6.05
2023-02-01T01:00:36.377Z,4.40
2023-02-01T01:05:39.222Z,3.45
2023-02-01T01:10:42.230Z,3.78
2023-02-01T01:15:44.890Z,3.35
2023-02-01T01:20:49.608Z,3.42
2023-02-01T01:30:55.839Z,5.43
2023-02-01T01:35:58.486Z,5.78
2023-02-01T01:41:02.550Z,3.53
2023-02-01T01:46:05.409Z,6.00
2023-02-01T01:51:10.452Z,5.18
2023-02-01T01:56:13.997Z,4.40
2023-02-01T02:01:17.179Z,6.20
2023-02-01T02:06:27.615Z,5.00
2023-02-01T02:11:30.275Z,4.00
2023-02-01T02:16:46.811Z,4.30
2023-02-01T02:22:14.041Z,4.47
2023-02-01T02:27:32.119Z,3.47
2023-02-01T02:32:55.027Z,4.93
2023-02-01T02:38:02.595Z,3.78
2023-02-01T02:43:29.739Z,3.42
2023-02-01T02:49:13.082Z,5.20
2023-02-01T02:54:41.661Z,5.85
2023-02-01T03:00:04.660Z,4.55
2023-02-01T03:10:24.089Z,5.32
2023-02-01T03:15:39.319Z,4.30
2023-02-01T03:20:45.294Z,5.65
2023-02-01T03:25:50.068Z,5.32
2023-02-01T03:30:53.048Z,4.35
2023-02-01T03:36:38.940Z,4.43
2023-02-01T03:41:43.231Z,6.15
2023-02-01T03:47:04.482Z,6.30
2023-02-01T03:52:11.036Z,4.95
2023-02-01T03:57:17.380Z,4.82
2023-02-01T04:02:20.744Z,5.45
2023-02-01T04:07:23.416Z,4.18
2023-02-01T04:12:26.275Z,3.50
2023-02-01T04:17:29.340Z,5.22
2023-02-01T04:22:32.110Z,4.85
2023-02-01T04:27:35.122Z,5.90
2023-02-01T04:32:38.495Z,4.03
2023-02-01T04:37:41.279Z,4.35
2023-02-01T04:42:45.733Z,4.43
2023-02-01T04:47:49.772Z,5.23
2023-02-01T04:52:52.678Z,5.05
2023-02-01T04:57:55.325Z,4.90
2023-02-01T05:03:00.549Z,3.65
2023-02-01T05:08:03.341Z,4.63
2023-02-01T05:13:24.388Z,3.33
2023-02-01T05:18:28.684Z,3.50
2023-02-01T05:23:31.462Z,4.88
2023-02-01T05:28:35.087Z,5.75
2023-02-01T05:33:38.011Z,4.40
2023-02-01T05:38:40.540Z,7.18
2023-02-01T05:43:43.316Z,5.60
2023-02-01T05:48:46.013Z,4.35
2023-02-01T05:53:48.600Z,6.43
2023-02-01T05:58:51.280Z,3.17
2023-02-01T06:03:54.013Z,5.07
2023-02-01T06:08:56.673Z,4.80
2023-02-01T06:14:00.122Z,5.40
2023-02-01T06:19:03.695Z,5.40
2023-02-01T06:24:07.742Z,5.78
2023-02-01T06:29:11.700Z,4.20
2023-02-01T06:34:14.909Z,5.55
2023-02-01T06:39:17.723Z,5.65
2023-02-01T06:44:20.271Z,3.72
2023-02-01T06:49:24.224Z,6.20
2023-02-01T06:54:27.692Z,6.47
2023-02-01T06:59:30.451Z,5.15
2023-02-01T07:04:33.070Z,5.07
2023-02-01T07:09:35.707Z,4.70
2023-02-01T07:14:38.447Z,5.13
2023-02-01T07:19:41.764Z,4.40
2023-02-01T07:24:44.582Z,5.03
2023-02-01T07:29:47.404Z,5.95
2023-02-01T07:34:50.016Z,4.90
2023-02-01T07:39:52.914Z,4.97
2023-02-01T07:44:55.738Z,5.75
2023-02-01T07:50:00.913Z,5.57
2023-02-01T07:55:05.344Z,5.95
2023-02-01T08:00:27.253Z,4.32
2023-02-01T08:05:29.964Z,5.68
2023-02-01T08:10:32.643Z,5.78
2023-02-01T08:15:35.574Z,5.55
2023-02-01T08:20:39.647Z,5.05
2023-02-01T08:25:42.256Z,5.72
2023-02-01T08:30:44.971Z,4.55
2023-02-01T08:35:47.608Z,5.00
2023-02-01T08:40:50.229Z,5.07
2023-02-01T08:45:57.054Z,5.82
2023-02-01T08:51:03.936Z,5.13
2023-02-01T08:56:08.173Z,5.65
2023-02-01T09:01:13.528Z,5.53
2023-02-01T09:06:34.821Z,5.50
2023-02-01T09:11:37.727Z,5.05
2023-02-01T09:16:41.978Z,3.90
2023-02-01T09:21:44.819Z,4.88
2023-02-01T09:26:47.657Z,5.10
2023-02-01T09:32:03.001Z,3.88
2023-02-01T09:37:06.467Z,3.95
2023-02-01T09:42:32.044Z,3.95
2023-02-01T09:47:36.635Z,5.18
2023-02-01T09:52:46.055Z,5.07
2023-02-01T09:57:59.793Z,4.30
2023-02-01T10:03:02.409Z,3.77
2023-02-01T10:08:31.071Z,5.20
2023-02-01T10:14:00.998Z,5.07
2023-02-01T10:19:57.905Z,6.22
2023-02-01T10:25:11.075Z,5.00
2023-02-01T10:30:14.210Z,4.78
2023-02-01T10:35:32.597Z,4.78
2023-02-01T10:40:35.432Z,6.57
2023-02-01T10:45:44.582Z,3.67
2023-02-01T10:50:56.435Z,4.30
2023-02-01T10:55:59.296Z,4.57
2023-02-01T11:01:04.469Z,5.47
2023-02-01T11:06:20.817Z,4.07
2023-02-01T11:11:24.308Z,4.57
2023-02-01T11:16:39.415Z,4.72
2023-02-01T11:21:46.661Z,5.22
2023-02-01T11:26:50.040Z,5.43
2023-02-01T11:31:53.040Z,4.60
2023-02-01T11:37:00.389Z,3.78
2023-02-01T11:42:21.938Z,5.95
2023-02-01T11:47:33.438Z,5.53
2023-02-01T11:53:07.024Z,5.65
2023-02-01T11:58:24.372Z,3.83
2023-02-01T12:03:54.319Z,4.28
2023-02-01T12:09:20.379Z,5.50
2023-02-01T12:14:45.819Z,4.05
2023-02-01T12:20:12.345Z,4.95
2023-02-01T12:25:30.436Z,4.68
2023-02-01T12:30:40.952Z,5.00
2023-02-01T12:36:01.981Z,5.03
2023-02-01T12:41:24.241Z,5.40
2023-02-01T12:46:45.942Z,4.22
2023-02-01T12:51:50.618Z,5.47
2023-02-01T12:57:08.910Z,3.20
2023-02-01T13:02:53.257Z,4.47
2023-02-01T13:08:15.685Z,4.70
2023-02-01T13:13:25.125Z,4.97
2023-02-01T13:18:35.090Z,4.30
2023-02-01T13:23:41.092Z,4.80
2023-02-01T13:28:53.428Z,4.38
2023-02-01T13:34:20.485Z,4.90
2023-02-01T13:40:10.658Z,3.65
2023-02-01T13:45:25.365Z,4.63
2023-02-01T13:50:32.239Z,5.05
2023-02-01T13:55:38.404Z,4.65
2023-02-01T14:00:44.010Z,4.15
2023-02-01T14:05:48.227Z,4.85
2023-02-01T14:11:36.565Z,5.35
2023-02-01T14:16:39.222Z,4.55
2023-02-01T14:21:49.481Z,5.70
2023-02-01T14:26:54.090Z,4.13
2023-02-01T14:32:16.633Z,4.45
2023-02-01T14:37:21.884Z,4.90
2023-02-01T14:42:32.229Z,4.35
2023-02-01T14:47:35.707Z,5.55
2023-02-01T14:52:46.656Z,6.78
2023-02-01T14:57:51.967Z,5.43
2023-02-01T15:02:57.539Z,6.20
2023-02-01T15:08:06.695Z,4.90
2023-02-01T15:13:29.208Z,6.05
2023-02-01T15:18:32.532Z,3.00
2023-02-01T15:23:35.207Z,2.65
2023-02-01T15:28:37.814Z,2.08
2023-02-01T15:33:41.061Z,2.00
2023-02-01T15:38:44.608Z,2.20
2023-02-01T15:44:06.845Z,2.25
2023-02-01T15:49:27.085Z,2.13
2023-02-01T15:54:32.905Z,2.72
2023-02-01T15:59:43.771Z,4.38
2023-02-01T16:04:51.958Z,3.88
2023-02-01T16:09:58.629Z,4.85
2023-02-01T16:15:01.193Z,5.20
2023-02-01T16:20:04.673Z,6.28
2023-02-01T16:25:07.965Z,6.00
2023-02-01T16:30:11.699Z,7.25
2023-02-01T16:35:24.607Z,4.60
2023-02-01T16:40:27.357Z,4.88
2023-02-01T16:45:50.485Z,7.60
2023-02-01T16:51:18.609Z,3.10
2023-02-01T16:56:26.415Z,4.13
2023-02-01T17:01:29.096Z,3.05
2023-02-01T17:06:33.535Z,3.70
2023-02-01T17:11:40.877Z,3.20
2023-02-01T17:16:45.239Z,3.97
2023-02-01T17:21:53.392Z,4.72
2023-02-01T17:26:58.679Z,3.58
2023-02-01T17:32:01.540Z,6.68
2023-02-01T17:37:07.021Z,6.93
2023-02-01T17:42:12.022Z,7.07
2023-02-01T17:47:16.311Z,6.95
2023-02-01T17:52:19.212Z,5.90
2023-02-01T17:57:22.462Z,7.35
2023-02-01T18:02:25.890Z,7.93
2023-02-01T18:07:30.808Z,6.18
2023-02-01T18:12:33.755Z,7.03
2023-02-01T18:17:36.505Z,7.43
2023-02-01T18:22:39.068Z,5.55
2023-02-01T18:27:42.095Z,4.75
2023-02-01T18:32:45.296Z,3.88
2023-02-01T18:37:48.862Z,5.32
2023-02-01T18:42:51.425Z,3.90
2023-02-01T18:47:54.057Z,3.50
2023-02-01T18:53:00.265Z,3.67
2023-02-01T18:58:04.726Z,3.55
2023-02-01T19:03:07.226Z,4.70
2023-02-01T19:08:10.155Z,4.75
2023-02-01T19:13:16.171Z,6.10
2023-02-01T19:18:20.433Z,5.05
2023-02-01T19:23:23.208Z,4.72
2023-02-01T19:28:26.208Z,3.88
2023-02-01T19:33:29.968Z,6.60
2023-02-01T19:38:33.900Z,6.67
2023-02-01T19:43:37.087Z,6.60
2023-02-01T19:48:39.756Z,7.75
2023-02-01T19:53:42.514Z,7.55
2023-02-01T19:58:46.716Z,3.25
2023-02-01T20:03:49.118Z,2.40
2023-02-01T20:08:52.058Z,3.20
2023-02-01T20:13:56.309Z,2.42
2023-02-01T20:19:00.381Z,2.53
2023-02-01T20:24:03.985Z,2.92
2023-02-01T20:29:07.520Z,2.30
2023-02-01T20:34:10.744Z,2.55
2023-02-01T20:39:14.786Z,2.97
2023-02-01T20:44:17.530Z,3.55
2023-02-01T20:49:20.244Z,3.95
2023-02-01T20:54:25.211Z,4.95
2023-02-01T20:59:27.980Z,5.53
2023-02-01T21:04:31.504Z,5.22
2023-02-01T21:09:34.188Z,5.90
2023-02-01T21:14:36.858Z,6.28
2023-02-01T21:19:45.952Z,5.75
2023-02-01T21:24:49.465Z,8.98
2023-02-01T21:29:52.384Z,9.27
2023-02-01T21:34:55.043Z,10.68
2023-02-01T21:39:58.946Z,8.57
2023-02-01T21:45:02.478Z,6.70
2023-02-01T21:50:14.683Z,5.82
2023-02-01T21:55:18.601Z,4.93
2023-02-01T22:00:21.701Z,5.60
2023-02-01T22:05:24.931Z,6.32
2023-02-01T22:10:27.702Z,7.05
2023-02-01T22:15:31.213Z,8.30
2023-02-01T22:20:35.647Z,9.30
2023-02-01T22:25:38.676Z,8.80
2023-02-01T22:30:42.052Z,9.00
2023-02-01T22:35:49.350Z,9.52
2023-02-01T22:40:56.431Z,7.30
2023-02-01T22:46:01.178Z,8.02
2023-02-01T22:56:07.596Z,7.82
2023-02-01T23:01:16.214Z,4.25
2023-02-01T23:06:19.768Z,9.23
2023-02-01T23:11:23.518Z,8.50
2023-02-01T23:16:27.236Z,10.15
2023-02-01T23:21:31.987Z,11.25
2023-02-01T23:31:37.278Z,9.38
2023-02-01T23:36:40.224Z,11.10
2023-02-01T23:41:43.003Z,9.93
2023-02-01T23:46:47.606Z,11.35
2023-02-01T23:51:53.276Z,10.95
2023-02-01T23:56:57.334Z,12.02
